sensor_id;sensor_type;location;lat;lon;timestamp;pressure;altitude;pressure_sealevel;temperature;humidity
19789;BME280;10054;59.332;18.244;2023-02-13T00:01:27;101735.19;;;1.68;100.00
19789;BME280;10054;59.332;18.244;2023-02-13T00:03:56;101736.05;;;1.69;100.00
19789;BME280;10054;59.332;18.244;2023-02-13T00:06:24;101736.48;;;1.68;100.00
19789;BME280;10054;59.332;18.244;2023-02-13T00:08:53;101729.98;;;1.68;100.00
19789;BME280;10054;59.332;18.244;2023-02-13T00:11:22;101733.89;;;1.68;100.00
19789;BME280;10054;59.332;18.244;2023-02-13T00:13:51;101739.94;;;1.70;100.00
19789;BME280;10054;59.332;18.244;2023-02-13T00:16:19;101734.73;;;1.70;100.00
19789;BME280;10054;59.332;18.244;2023-02-13T00:18:48;101730.82;;;1.72;100.00
19789;BME280;10054;59.332;18.244;2023-02-13T00:21:16;101731.25;;;1.73;100.00
19789;BME280;10054;59.332;18.244;2023-02-13T00:23:45;101729.51;;;1.73;100.00
19789;BME280;10054;59.332;18.244;2023-02-13T00:26:15;101721.68;;;1.76;100.00
19789;BME280;10054;59.332;18.244;2023-02-13T00:28:44;101721.25;;;1.75;100.00
19789;BME280;10054;59.332;18.244;2023-02-13T00:31:16;101726.00;;;1.77;100.00
19789;BME280;10054;59.332;18.244;2023-02-13T00:33:44;101722.53;;;1.78;100.00
19789;BME280;10054;59.332;18.244;2023-02-13T00:36:21;101728.58;;;1.80;100.00
19789;BME280;10054;59.332;18.244;2023-02-13T00:38:52;101716.88;;;1.80;100.00
19789;BME280;10054;59.332;18.244;2023-02-13T00:41:20;101714.27;;;1.80;100.00
19789;BME280;10054;59.332;18.244;2023-02-13T00:43:50;101719.46;;;1.82;100.00
19789;BME280;10054;59.332;18.244;2023-02-13T00:46:19;101724.65;;;1.83;100.00
19789;BME280;10054;59.332;18.244;2023-02-13T00:48:47;101716.84;;;1.83;100.00
19789;BME280;10054;59.332;18.244;2023-02-13T00:51:16;101708.61;;;1.84;100.00
19789;BME280;10054;59.332;18.244;2023-02-13T00:53:44;101705.58;;;1.83;100.00
19789;BME280;10054;59.332;18.244;2023-02-13T00:56:15;101704.70;;;1.84;100.00
19789;BME280;10054;59.332;18.244;2023-02-13T00:58:44;101697.34;;;1.82;100.00
19789;BME280;10054;59.332;18.244;2023-02-13T01:01:13;101697.78;;;1.81;100.00
19789;BME280;10054;59.332;18.244;2023-02-13T01:03:42;101701.67;;;1.83;100.00
19789;BME280;10054;59.332;18.244;2023-02-13T01:06:12;101700.38;;;1.83;100.00
19789;BME280;10054;59.332;18.244;2023-02-13T01:08:41;101701.22;;;1.85;100.00
19789;BME280;10054;59.332;18.244;2023-02-13T01:11:10;101689.95;;;1.84;100.00
19789;BME280;10054;59.332;18.244;2023-02-13T01:13:38;101693.43;;;1.83;100.00
19789;BME280;10054;59.332;18.244;2023-02-13T01:16:07;101699.06;;;1.84;100.00
19789;BME280;10054;59.332;18.244;2023-02-13T01:18:36;101694.72;;;1.85;100.00
19789;BME280;10054;59.332;18.244;2023-02-13T01:21:13;101692.12;;;1.85;100.00
19789;BME280;10054;59.332;18.244;2023-02-13T01:23:38;101696.43;;;1.87;100.00
19789;BME280;10054;59.332;18.244;2023-02-13T01:26:10;101690.33;;;1.90;100.00
19789;BME280;10054;59.332;18.244;2023-02-13T01:28:38;101678.17;;;1.92;100.00
19789;BME280;10054;59.332;18.244;2023-02-13T01:31:07;101672.95;;;1.93;100.00
19789;BME280;10054;59.332;18.244;2023-02-13T01:33:35;101675.09;;;1.95;100.00
19789;BME280;10054;59.332;18.244;2023-02-13T01:36:10;101673.80;;;1.95;100.00
19789;BME280;10054;59.332;18.244;2023-02-13T01:38:39;101674.66;;;1.96;100.00
19789;BME280;10054;59.332;18.244;2023-02-13T01:41:08;101681.63;;;1.94;100.00
19789;BME280;10054;59.332;18.244;2023-02-13T01:43:54;101682.52;;;1.91;100.00
19789;BME280;10054;59.332;18.244;2023-02-13T01:46:37;101679.48;;;1.90;100.00
19789;BME280;10054;59.332;18.244;2023-02-13T01:49:08;101676.46;;;1.89;100.00
19789;BME280;10054;59.332;18.244;2023-02-13T01:51:34;101668.22;;;1.90;100.00
19789;BME280;10054;59.332;18.244;2023-02-13T01:54:12;101666.05;;;1.89;100.00
19789;BME280;10054;59.332;18.244;2023-02-13T01:56:47;101667.80;;;1.89;100.00
19789;BME280;10054;59.332;18.244;2023-02-13T01:59:18;101680.34;;;1.91;100.00
19789;BME280;10054;59.332;18.244;2023-02-13T02:01:47;101670.38;;;1.90;100.00
19789;BME280;10054;59.332;18.244;2023-02-13T02:04:19;101671.26;;;1.89;100.00
19789;BME280;10054;59.332;18.244;2023-02-13T02:06:51;101673.00;;;1.89;100.00
19789;BME280;10054;59.332;18.244;2023-02-13T02:09:30;101677.77;;;1.89;100.00
19789;BME280;10054;59.332;18.244;2023-02-13T02:12:37;101676.88;;;1.90;100.00
19789;BME280;10054;59.332;18.244;2023-02-13T02:15:01;101669.95;;;1.89;100.00
19789;BME280;10054;59.332;18.244;2023-02-13T02:17:31;101672.98;;;1.90;100.00
19789;BME280;10054;59.332;18.244;2023-02-13T02:26:03;101672.58;;;1.88;100.00
19789;BME280;10054;59.332;18.244;2023-02-13T02:29:00;101667.82;;;1.86;100.00
19789;BME280;10054;59.332;18.244;2023-02-13T02:37:21;101663.06;;;1.85;100.00
19789;BME280;10054;59.332;18.244;2023-02-13T02:42:38;101666.98;;;1.84;100.00
19789;BME280;10054;59.332;18.244;2023-02-13T02:48:08;101667.87;;;1.81;100.00
19789;BME280;10054;59.332;18.244;2023-02-13T02:51:15;101675.23;;;1.82;100.00
19789;BME280;10054;59.332;18.244;2023-02-13T02:54:00;101659.64;;;1.80;100.00
19789;BME280;10054;59.332;18.244;2023-02-13T02:56:35;101666.55;;;1.83;100.00
19789;BME280;10054;59.332;18.244;2023-02-13T02:59:04;101676.48;;;1.88;100.00
19789;BME280;10054;59.332;18.244;2023-02-13T03:01:52;101676.00;;;1.91;100.00
19789;BME280;10054;59.332;18.244;2023-02-13T03:04:47;101679.91;;;1.91;100.00
19789;BME280;10054;59.332;18.244;2023-02-13T03:07:35;101671.68;;;1.90;100.00
19789;BME280;10054;59.332;18.244;2023-02-13T03:10:06;101671.26;;;1.89;100.00
19789;BME280;10054;59.332;18.244;2023-02-13T03:13:06;101666.06;;;1.88;100.00
19789;BME280;10054;59.332;18.244;2023-02-13T03:15:45;101664.78;;;1.86;100.00
19789;BME280;10054;59.332;18.244;2023-02-13T03:18:35;101664.78;;;1.86;100.00
19789;BME280;10054;59.332;18.244;2023-02-13T03:26:53;101661.30;;;1.87;100.00
19789;BME280;10054;59.332;18.244;2023-02-13T03:29:27;101657.42;;;1.86;100.00
19789;BME280;10054;59.332;18.244;2023-02-13T03:32:23;101661.30;;;1.87;100.00
19789;BME280;10054;59.332;18.244;2023-02-13T03:34:54;101660.00;;;1.87;100.00
19789;BME280;10054;59.332;18.244;2023-02-13T03:37:41;101656.96;;;1.88;100.00
19789;BME280;10054;59.332;18.244;2023-02-13T03:40:27;101651.76;;;1.88;100.00
19789;BME280;10054;59.332;18.244;2023-02-13T03:43:09;101653.08;;;1.86;100.00
19789;BME280;10054;59.332;18.244;2023-02-13T03:45:36;101652.20;;;1.87;100.00
19789;BME280;10054;59.332;18.244;2023-02-13T03:48:25;101656.51;;;1.90;100.00
19789;BME280;10054;59.332;18.244;2023-02-13T03:51:11;101650.86;;;1.90;100.00
19789;BME280;10054;59.332;18.244;2023-02-13T03:53:42;101648.25;;;1.92;100.00
19789;BME280;10054;59.332;18.244;2023-02-13T03:56:12;101649.55;;;1.92;100.00
19789;BME280;10054;59.332;18.244;2023-02-13T03:59:01;101638.28;;;1.91;100.00
19789;BME280;10054;59.332;18.244;2023-02-13T04:01:44;101645.62;;;1.93;100.00
19789;BME280;10054;59.332;18.244;2023-02-13T04:06:56;101633.48;;;1.94;100.00
19789;BME280;10054;59.332;18.244;2023-02-13T04:09:26;101633.48;;;1.94;100.00
19789;BME280;10054;59.332;18.244;2023-02-13T04:12:16;101636.08;;;1.94;100.00
19789;BME280;10054;59.332;18.244;2023-02-13T04:17:30;101635.56;;;2.02;100.00
19789;BME280;10054;59.332;18.244;2023-02-13T04:19:54;101639.47;;;2.02;100.00
19789;BME280;10054;59.332;18.244;2023-02-13T04:22:23;101642.09;;;2.01;100.00
19789;BME280;10054;59.332;18.244;2023-02-13T04:24:51;101642.10;;;1.99;100.00
19789;BME280;10054;59.332;18.244;2023-02-13T04:27:20;101638.66;;;1.97;100.00
19789;BME280;10054;59.332;18.244;2023-02-13T04:29:49;101636.95;;;1.94;100.00
19789;BME280;10054;59.332;18.244;2023-02-13T04:32:18;101632.60;;;1.95;100.00
19789;BME280;10054;59.332;18.244;2023-02-13T04:34:46;101624.81;;;1.93;100.00
19789;BME280;10054;59.332;18.244;2023-02-13T04:37:15;101621.79;;;1.92;100.00
19789;BME280;10054;59.332;18.244;2023-02-13T04:39:43;101624.81;;;1.93;100.00
19789;BME280;10054;59.332;18.244;2023-02-13T04:42:12;101634.78;;;1.94;100.00
19789;BME280;10054;59.332;18.244;2023-02-13T04:44:40;101636.95;;;1.94;100.00
19789;BME280;10054;59.332;18.244;2023-02-13T04:47:09;101630.02;;;1.93;100.00
19789;BME280;10054;59.332;18.244;2023-02-13T04:49:37;101635.22;;;1.93;100.00
19789;BME280;10054;59.332;18.244;2023-02-13T04:52:06;101649.97;;;1.93;100.00
19789;BME280;10054;59.332;18.244;2023-02-13T04:54:35;101643.91;;;1.92;100.00
19789;BME280;10054;59.332;18.244;2023-02-13T04:57:04;101641.30;;;1.92;100.00
19789;BME280;10054;59.332;18.244;2023-02-13T04:59:32;101640.02;;;1.91;100.00
19789;BME280;10054;59.332;18.244;2023-02-13T05:02:01;101645.22;;;1.91;100.00
19789;BME280;10054;59.332;18.244;2023-02-13T05:04:30;101647.37;;;1.93;100.00
19789;BME280;10054;59.332;18.244;2023-02-13T05:06:59;101651.66;;;1.97;100.00
19789;BME280;10054;59.332;18.244;2023-02-13T05:09:28;101652.97;;;1.97;100.00
19789;BME280;10054;59.332;18.244;2023-02-13T05:11:57;101649.53;;;1.93;100.00
19789;BME280;10054;59.332;18.244;2023-02-13T05:14:26;101644.78;;;1.91;100.00
19789;BME280;10054;59.332;18.244;2023-02-13T05:16:54;101655.20;;;1.90;100.00
19789;BME280;10054;59.332;18.244;2023-02-13T05:19:25;101654.37;;;1.86;100.00
19789;BME280;10054;59.332;18.244;2023-02-13T05:21:53;101647.01;;;1.86;100.00
19789;BME280;10054;59.332;18.244;2023-02-13T05:24:40;101649.63;;;1.84;100.00
19789;BME280;10054;59.332;18.244;2023-02-13T05:27:09;101649.63;;;1.84;100.00
19789;BME280;10054;59.332;18.244;2023-02-13T05:29:37;101645.73;;;1.83;100.00
19789;BME280;10054;59.332;18.244;2023-02-13T05:32:06;101653.13;;;1.82;100.00
19789;BME280;10054;59.332;18.244;2023-02-13T05:34:35;101650.95;;;1.81;100.00
19789;BME280;10054;59.332;18.244;2023-02-13T05:37:04;101654.44;;;1.80;100.00
19789;BME280;10054;59.332;18.244;2023-02-13T05:39:33;101650.11;;;1.79;100.00
19789;BME280;10054;59.332;18.244;2023-02-13T05:42:03;101654.89;;;1.78;100.00
19789;BME280;10054;59.332;18.244;2023-02-13T05:44:32;101660.52;;;1.79;100.00
19789;BME280;10054;59.332;18.244;2023-02-13T05:47:01;101662.25;;;1.79;100.00
19789;BME280;10054;59.332;18.244;2023-02-13T05:49:29;101661.82;;;1.79;100.00
19789;BME280;10054;59.332;18.244;2023-02-13T05:51:58;101665.30;;;1.78;100.00
19789;BME280;10054;59.332;18.244;2023-02-13T05:54:27;101664.88;;;1.77;100.00
19789;BME280;10054;59.332;18.244;2023-02-13T05:56:56;101677.45;;;1.76;100.00
19789;BME280;10054;59.332;18.244;2023-02-13T05:59:25;101681.80;;;1.76;100.00
19789;BME280;10054;59.332;18.244;2023-02-13T06:01:53;101688.73;;;1.75;100.00
19789;BME280;10054;59.332;18.244;2023-02-13T06:04:22;101690.47;;;1.75;100.00
19789;BME280;10054;59.332;18.244;2023-02-13T06:06:51;101697.42;;;1.74;100.00
19789;BME280;10054;59.332;18.244;2023-02-13T06:09:20;101700.89;;;1.73;100.00
19789;BME280;10054;59.332;18.244;2023-02-13T06:11:49;101703.48;;;1.75;100.00
19789;BME280;10054;59.332;18.244;2023-02-13T06:14:18;101714.67;;;1.84;100.00
19789;BME280;10054;59.332;18.244;2023-02-13T06:16:47;101708.16;;;1.84;100.00
19789;BME280;10054;59.332;18.244;2023-02-13T06:19:16;101713.82;;;1.82;100.00
19789;BME280;10054;59.332;18.244;2023-02-13T06:21:44;101725.13;;;1.78;100.00
19789;BME280;10054;59.332;18.244;2023-02-13T06:24:13;101735.56;;;1.75;100.00
19789;BME280;10054;59.332;18.244;2023-02-13T06:26:42;101744.27;;;1.71;100.00
19789;BME280;10054;59.332;18.244;2023-02-13T06:29:11;101740.39;;;1.68;100.00
19789;BME280;10054;59.332;18.244;2023-02-13T06:31:40;101735.20;;;1.67;100.00
19789;BME280;10054;59.332;18.244;2023-02-13T06:34:09;101724.38;;;1.64;100.00
19789;BME280;10054;59.332;18.244;2023-02-13T06:36:37;101738.69;;;1.64;100.00
19789;BME280;10054;59.332;18.244;2023-02-13T06:39:09;101738.27;;;1.61;100.00
19789;BME280;10054;59.332;18.244;2023-02-13T06:41:38;101729.17;;;1.61;100.00
19789;BME280;10054;59.332;18.244;2023-02-13T06:44:07;101732.20;;;1.62;100.00
19789;BME280;10054;59.332;18.244;2023-02-13T06:46:35;101736.52;;;1.63;100.00
19789;BME280;10054;59.332;18.244;2023-02-13T06:49:04;101727.86;;;1.63;100.00
19789;BME280;10054;59.332;18.244;2023-02-13T06:51:33;101733.47;;;1.65;100.00
19789;BME280;10054;59.332;18.244;2023-02-13T06:54:02;101725.66;;;1.67;100.00
19789;BME280;10054;59.332;18.244;2023-02-13T06:56:30;101713.95;;;1.67;100.00
19789;BME280;10054;59.332;18.244;2023-02-13T06:58:59;101713.09;;;1.67;100.00
19789;BME280;10054;59.332;18.244;2023-02-13T07:01:28;101700.95;;;1.67;100.00
19789;BME280;10054;59.332;18.244;2023-02-13T07:03:57;101701.37;;;1.68;100.00
19789;BME280;10054;59.332;18.244;2023-02-13T07:06:26;101719.13;;;1.70;100.00
19789;BME280;10054;59.332;18.244;2023-02-13T07:08:54;101725.63;;;1.70;100.00
19789;BME280;10054;59.332;18.244;2023-02-13T07:11:24;101721.73;;;1.70;100.00
19789;BME280;10054;59.332;18.244;2023-02-13T07:13:53;101721.28;;;1.72;100.00
19789;BME280;10054;59.332;18.244;2023-02-13T07:16:22;101722.14;;;1.73;100.00
19789;BME280;10054;59.332;18.244;2023-02-13T07:18:50;101725.18;;;1.72;100.00
19789;BME280;10054;59.332;18.244;2023-02-13T07:21:19;101721.28;;;1.72;100.00
19789;BME280;10054;59.332;18.244;2023-02-13T07:23:48;101723.45;;;1.73;100.00
19789;BME280;10054;59.332;18.244;2023-02-13T07:26:16;101723.47;;;1.70;100.00
19789;BME280;10054;59.332;18.244;2023-02-13T07:28:45;101728.23;;;1.70;100.00
19789;BME280;10054;59.332;18.244;2023-02-13T07:31:14;101705.27;;;1.70;100.00
19789;BME280;10054;59.332;18.244;2023-02-13T07:33:42;101707.42;;;1.70;100.00
19789;BME280;10054;59.332;18.244;2023-02-13T07:36:11;101696.59;;;1.69;100.00
19789;BME280;10054;59.332;18.244;2023-02-13T07:38:39;101711.77;;;1.70;100.00
19789;BME280;10054;59.332;18.244;2023-02-13T07:41:08;101718.70;;;1.69;100.00
19789;BME280;10054;59.332;18.244;2023-02-13T07:43:37;101714.79;;;1.71;100.00
19789;BME280;10054;59.332;18.244;2023-02-13T07:46:06;101721.28;;;1.72;100.00
19789;BME280;10054;59.332;18.244;2023-02-13T07:48:35;101706.96;;;1.74;100.00
19789;BME280;10054;59.332;18.244;2023-02-13T07:51:05;101712.13;;;1.78;100.00
19789;BME280;10054;59.332;18.244;2023-02-13T07:53:34;101707.77;;;1.80;100.00
19789;BME280;10054;59.332;18.244;2023-02-13T07:56:07;101715.53;;;1.85;100.00
19789;BME280;10054;59.332;18.244;2023-02-13T07:58:36;101725.02;;;1.90;100.00
19789;BME280;10054;59.332;18.244;2023-02-13T08:01:09;101733.20;;;1.97;100.00
19789;BME280;10054;59.332;18.244;2023-02-13T08:03:39;101717.52;;;2.04;100.00
19789;BME280;10054;59.332;18.244;2023-02-13T08:06:08;101730.05;;;2.09;100.00
19789;BME280;10054;59.332;18.244;2023-02-13T08:08:37;101740.00;;;2.12;100.00
19789;BME280;10054;59.332;18.244;2023-02-13T08:11:11;101744.28;;;2.18;100.00
19789;BME280;10054;59.332;18.244;2023-02-13T08:13:54;101744.23;;;2.22;100.00
19789;BME280;10054;59.332;18.244;2023-02-13T08:16:23;101755.43;;;2.27;100.00
19789;BME280;10054;59.332;18.244;2023-02-13T08:18:52;101754.52;;;2.31;100.00
19789;BME280;10054;59.332;18.244;2023-02-13T08:21:20;101755.78;;;2.36;100.00
19789;BME280;10054;59.332;18.244;2023-02-13T08:23:49;101760.06;;;2.42;100.00
19789;BME280;10054;59.332;18.244;2023-02-13T08:26:18;101760.85;;;2.48;100.00
19789;BME280;10054;59.332;18.244;2023-02-13T08:28:46;101763.83;;;2.54;100.00
19789;BME280;10054;59.332;18.244;2023-02-13T08:31:15;101768.55;;;2.59;100.00
19789;BME280;10054;59.332;18.244;2023-02-13T08:33:44;101771.11;;;2.63;100.00
19789;BME280;10054;59.332;18.244;2023-02-13T08:36:12;101773.22;;;2.69;100.00
19789;BME280;10054;59.332;18.244;2023-02-13T08:38:41;101778.38;;;2.73;100.00
19789;BME280;10054;59.332;18.244;2023-02-13T08:41:10;101787.44;;;2.78;100.00
19789;BME280;10054;59.332;18.244;2023-02-13T08:43:38;101786.98;;;2.80;100.00
19789;BME280;10054;59.332;18.244;2023-02-13T08:46:07;101792.14;;;2.84;100.00
19789;BME280;10054;59.332;18.244;2023-02-13T08:48:35;101799.02;;;2.90;100.00
19789;BME280;10054;59.332;18.244;2023-02-13T08:51:08;101798.97;;;2.94;100.00
19789;BME280;10054;59.332;18.244;2023-02-13T08:53:39;101803.66;;;3.00;100.00
19789;BME280;10054;59.332;18.244;2023-02-13T08:56:09;101809.67;;;3.05;100.00
19789;BME280;10054;59.332;18.244;2023-02-13T08:58:38;101805.70;;;3.09;100.00
19789;BME280;10054;59.332;18.244;2023-02-13T09:01:07;101802.14;;;3.16;100.00
19789;BME280;10054;59.332;18.244;2023-02-13T09:03:36;101806.37;;;3.25;100.00
19789;BME280;10054;59.332;18.244;2023-02-13T09:06:04;101808.02;;;3.32;100.00
19789;BME280;10054;59.332;18.244;2023-02-13T09:08:34;101810.17;;;3.33;100.00
19789;BME280;10054;59.332;18.244;2023-02-13T09:11:04;101811.44;;;3.36;100.00
19789;BME280;10054;59.332;18.244;2023-02-13T09:13:34;101813.98;;;3.40;100.00
19789;BME280;10054;59.332;18.244;2023-02-13T09:16:07;101805.68;;;3.44;100.00
19789;BME280;10054;59.332;18.244;2023-02-13T09:18:36;101800.84;;;3.48;100.00
19789;BME280;10054;59.332;18.244;2023-02-13T09:21:07;101799.05;;;3.51;100.00
19789;BME280;10054;59.332;18.244;2023-02-13T09:23:38;101793.72;;;3.59;100.00
19789;BME280;10054;59.332;18.244;2023-02-13T09:26:09;101792.78;;;3.63;100.00
19789;BME280;10054;59.332;18.244;2023-02-13T09:28:39;101789.20;;;3.70;100.00
19789;BME280;10054;59.332;18.244;2023-02-13T09:31:09;101791.19;;;3.80;100.00
19789;BME280;10054;59.332;18.244;2023-02-13T09:33:38;101796.73;;;3.87;100.00
19789;BME280;10054;59.332;18.244;2023-02-13T09:36:09;101797.96;;;3.91;100.00
19789;BME280;10054;59.332;18.244;2023-02-13T09:38:38;101801.36;;;3.96;100.00
19789;BME280;10054;59.332;18.244;2023-02-13T09:41:20;101806.11;;;3.99;100.00
19789;BME280;10054;59.332;18.244;2023-02-13T09:46:23;101796.88;;;4.05;100.00
19789;BME280;10054;59.332;18.244;2023-02-13T09:48:59;101795.96;;;4.07;100.00
19789;BME280;10054;59.332;18.244;2023-02-13T09:51:29;101795.50;;;4.09;100.00
19789;BME280;10054;59.332;18.244;2023-02-13T09:54:00;101792.86;;;4.11;100.00
19789;BME280;10054;59.332;18.244;2023-02-13T10:14:17;101808.69;;;4.27;100.00
19789;BME280;10054;59.332;18.244;2023-02-13T10:17:04;101810.38;;;4.29;100.00
19789;BME280;10054;59.332;18.244;2023-02-13T10:19:49;101807.73;;;4.31;100.00
19789;BME280;10054;59.332;18.244;2023-02-13T10:22:19;101807.69;;;4.34;100.00
19789;BME280;10054;59.332;18.244;2023-02-13T10:24:55;101809.36;;;4.38;100.00
19789;BME280;10054;59.332;18.244;2023-02-13T10:27:31;101812.75;;;4.43;100.00
19789;BME280;10054;59.332;18.244;2023-02-13T10:30:07;101822.73;;;4.45;100.00
19789;BME280;10054;59.332;18.244;2023-02-13T10:35:29;101821.25;;;4.53;100.00
19789;BME280;10054;59.332;18.244;2023-02-13T10:37:58;101824.67;;;4.56;100.00
19789;BME280;10054;59.332;18.244;2023-02-13T10:40:31;101825.92;;;4.59;100.00
19789;BME280;10054;59.332;18.244;2023-02-13T10:43:11;101831.06;;;4.64;100.00
19789;BME280;10054;59.332;18.244;2023-02-13T10:45:55;101838.38;;;4.69;100.00
19789;BME280;10054;59.332;18.244;2023-02-13T10:48:44;101829.16;;;4.72;100.00
19789;BME280;10054;59.332;18.244;2023-02-13T10:51:32;101832.64;;;4.73;100.00
19789;BME280;10054;59.332;18.244;2023-02-13T10:56:34;101842.53;;;4.79;100.00
19789;BME280;10054;59.332;18.244;2023-02-13T10:59:07;101842.09;;;4.80;100.00
19789;BME280;10054;59.332;18.244;2023-02-13T11:01:44;101844.67;;;4.81;100.00
19789;BME280;10054;59.332;18.244;2023-02-13T11:04:13;101837.22;;;4.84;100.00
19789;BME280;10054;59.332;18.244;2023-02-13T11:06:55;101835.47;;;4.84;100.00
19789;BME280;10054;59.332;18.244;2023-02-13T11:09:20;101848.06;;;4.86;100.00
19789;BME280;10054;59.332;18.244;2023-02-13T11:11:49;101841.44;;;4.91;100.00
19789;BME280;10054;59.332;18.244;2023-02-13T11:14:27;101844.89;;;4.93;100.00
19789;BME280;10054;59.332;18.244;2023-02-13T11:17:11;101841.83;;;4.93;100.00
19789;BME280;10054;59.332;18.244;2023-02-13T11:19:46;101840.91;;;4.96;100.00
19789;BME280;10054;59.332;18.244;2023-02-13T11:22:12;101838.26;;;4.98;100.00
19789;BME280;10054;59.332;18.244;2023-02-13T11:24:49;101847.41;;;4.98;100.00
19789;BME280;10054;59.332;18.244;2023-02-13T11:27:12;101847.41;;;4.98;100.00
19789;BME280;10054;59.332;18.244;2023-02-13T11:29:53;101845.66;;;4.98;100.00
19789;BME280;10054;59.332;18.244;2023-02-13T11:34:54;101858.28;;;4.99;100.00
19789;BME280;10054;59.332;18.244;2023-02-13T11:37:28;101853.00;;;5.02;100.00
19789;BME280;10054;59.332;18.244;2023-02-13T11:39:59;101857.75;;;5.04;100.00
19789;BME280;10054;59.332;18.244;2023-02-13T11:42:29;101860.78;;;5.05;100.00
19789;BME280;10054;59.332;18.244;2023-02-13T11:45:02;101854.59;;;5.09;100.00
19789;BME280;10054;59.332;18.244;2023-02-13T11:47:41;101858.02;;;5.12;100.00
19789;BME280;10054;59.332;18.244;2023-02-13T11:50:25;101859.73;;;5.13;100.00
19789;BME280;10054;59.332;18.244;2023-02-13T11:53:13;101865.00;;;5.12;100.00
19789;BME280;10054;59.332;18.244;2023-02-13T11:55:39;101862.35;;;5.13;100.00
19789;BME280;10054;59.332;18.244;2023-02-13T12:00:44;101873.23;;;5.14;100.00
19789;BME280;10054;59.332;18.244;2023-02-13T12:06:13;101880.61;;;5.16;100.00
19789;BME280;10054;59.332;18.244;2023-02-13T12:08:45;101881.02;;;5.17;100.00
19789;BME280;10054;59.332;18.244;2023-02-13T12:11:23;101885.33;;;5.20;100.00
19789;BME280;10054;59.332;18.244;2023-02-13T12:13:52;101884.41;;;5.21;100.00
19789;BME280;10054;59.332;18.244;2023-02-13T12:16:43;101884.34;;;5.24;100.00
19789;BME280;10054;59.332;18.244;2023-02-13T12:19:15;101888.23;;;5.25;100.00
19789;BME280;10054;59.332;18.244;2023-02-13T12:24:46;101884.72;;;5.26;100.00
19789;BME280;10054;59.332;18.244;2023-02-13T12:33:22;101892.86;;;5.34;100.00
19789;BME280;10054;59.332;18.244;2023-02-13T12:38:33;101903.23;;;5.38;100.00
19789;BME280;10054;59.332;18.244;2023-02-13T12:41:20;101899.25;;;5.41;100.00
19789;BME280;10054;59.332;18.244;2023-02-13T12:50:19;101909.50;;;5.52;100.00
19789;BME280;10054;59.332;18.244;2023-02-13T12:52:39;101915.08;;;5.56;100.00
19789;BME280;10054;59.332;18.244;2023-02-13T12:55:22;101920.25;;;5.59;100.00
19789;BME280;10054;59.332;18.244;2023-02-13T13:11:26;101928.23;;;5.74;100.00
19789;BME280;10054;59.332;18.244;2023-02-13T13:14:03;101935.22;;;5.73;100.00
19789;BME280;10054;59.332;18.244;2023-02-13T13:21:59;101943.66;;;5.67;100.00
19789;BME280;10054;59.332;18.244;2023-02-13T13:27:29;101938.89;;;5.65;100.00
19789;BME280;10054;59.332;18.244;2023-02-13T13:30:03;101944.64;;;5.61;100.00
19789;BME280;10054;59.332;18.244;2023-02-13T13:32:31;101939.44;;;5.59;100.00
19789;BME280;10054;59.332;18.244;2023-02-13T13:35:04;101942.92;;;5.60;100.00
19789;BME280;10054;59.332;18.244;2023-02-13T13:37:39;101945.19;;;5.56;100.00
19789;BME280;10054;59.332;18.244;2023-02-13T13:45:41;101952.14;;;5.57;100.00
19789;BME280;10054;59.332;18.244;2023-02-13T13:48:27;101946.94;;;5.55;100.00
19789;BME280;10054;59.332;18.244;2023-02-13T13:50:50;101951.31;;;5.55;100.00
19789;BME280;10054;59.332;18.244;2023-02-13T13:53:21;101952.66;;;5.53;100.00
19789;BME280;10054;59.332;18.244;2023-02-13T13:58:46;101953.09;;;5.53;100.00
19789;BME280;10054;59.332;18.244;2023-02-13T14:01:24;101950.06;;;5.52;100.00
19789;BME280;10054;59.332;18.244;2023-02-13T14:03:57;101964.05;;;5.51;100.00
19789;BME280;10054;59.332;18.244;2023-02-13T14:07:14;101961.42;;;5.51;100.00
19789;BME280;10054;59.332;18.244;2023-02-13T14:09:03;101955.33;;;5.50;100.00
19789;BME280;10054;59.332;18.244;2023-02-13T14:11:35;101955.84;;;5.47;100.00
19789;BME280;10054;59.332;18.244;2023-02-13T14:17:00;101968.16;;;5.42;100.00
19789;BME280;10054;59.332;18.244;2023-02-13T14:19:49;101965.53;;;5.42;100.00
19789;BME280;10054;59.332;18.244;2023-02-13T14:24:59;101975.14;;;5.41;100.00
19789;BME280;10054;59.332;18.244;2023-02-13T14:27:31;101967.73;;;5.41;100.00
19789;BME280;10054;59.332;18.244;2023-02-13T14:30:00;101965.59;;;5.39;100.00
19789;BME280;10054;59.332;18.244;2023-02-13T14:32:31;101973.50;;;5.36;100.00
19789;BME280;10054;59.332;18.244;2023-02-13T14:35:22;101970.47;;;5.35;100.00
19789;BME280;10054;59.332;18.244;2023-02-13T14:37:58;101964.34;;;5.36;100.00
19789;BME280;10054;59.332;18.244;2023-02-13T14:40:48;101969.58;;;5.36;100.00
19789;BME280;10054;59.332;18.244;2023-02-13T14:43:29;101974.39;;;5.35;100.00
19789;BME280;10054;59.332;18.244;2023-02-13T14:46:06;101966.61;;;5.32;100.00
19789;BME280;10054;59.332;18.244;2023-02-13T14:48:52;101961.41;;;5.30;100.00
19789;BME280;10054;59.332;18.244;2023-02-13T14:51:53;101966.28;;;5.26;100.00
19789;BME280;10054;59.332;18.244;2023-02-13T14:54:11;101972.02;;;5.22;100.00
19789;BME280;10054;59.332;18.244;2023-02-13T14:56:33;101969.06;;;5.18;100.00
19789;BME280;10054;59.332;18.244;2023-02-13T14:59:21;101975.22;;;5.16;100.00
19789;BME280;10054;59.332;18.244;2023-02-13T15:02:13;101972.60;;;5.16;100.00
19789;BME280;10054;59.332;18.244;2023-02-13T15:04:40;101978.31;;;5.14;100.00